This is the latest recevied weather packets stored in our database for station/object CE4ERM-13. If no packets are shown the sender has not sent any weather packets the latest 10 day(s).
| Time | Temp. | Humidity | Pressure | Rain* | Wind** | Luminosity | Snow |
|---|---|---|---|---|---|---|---|
| 1777481853 | 24.44° C | 39% | 1016.8 hPa | - | - | - | - |
| 1777481049 | 32.22° C | 27% | 1016.5 hPa | - | - | - | - |
| 1777480652 | 23.89° C | 41% | 1015.8 hPa | - | - | - | - |
| 1777480448 | 32.78° C | 26% | 1017.5 hPa | - | - | - | - |
| 1777480052 | 23.89° C | 41% | 1016.1 hPa | - | - | - | - |
| 1777479847 | 31.67° C | 28% | 1016.6 hPa | - | - | - | - |
| 1777479451 | 23.33° C | 41% | 1017.3 hPa | - | - | - | - |
| 1777479247 | 31.67° C | 28% | 1016.6 hPa | - | - | - | - |
| 1777478851 | 22.78° C | 41% | 1014.4 hPa | - | - | - | - |
| 1777478646 | 31.11° C | 29% | 1016 hPa | - | - | - | - |
| 1777478251 | 22.78° C | 42% | 1018.2 hPa | - | - | - | - |
| 1777478046 | 30.56° C | 30% | 1016.9 hPa | - | - | - | - |
| 1777477446 | 28.33° C | 34% | 1016.1 hPa | - | - | - | - |
| 1777477051 | 22.78° C | 43% | 1019 hPa | - | - | - | - |
| 1777476457 | 22.22° C | 44% | 1017.5 hPa | - | - | - | - |
| 1777476451 | 22.22° C | 44% | 1017.5 hPa | - | - | - | - |
| 1777476245 | 28.33° C | 34% | 1017.7 hPa | - | - | - | - |
| 1777475850 | 22.22° C | 44% | 1017.4 hPa | - | - | - | - |
| 1777475644 | 28.33° C | 33% | 1017.4 hPa | - | - | - | - |
| 1777475250 | 21.67° C | 44% | 1019.2 hPa | - | - | - | - |
| 1777475044 | 27.22° C | 36% | 1017.3 hPa | - | - | - | - |
| 1777474650 | 21.11° C | 45% | 1018 hPa | - | - | - | - |
| 1777474443 | 24.44° C | 41% | 1017.5 hPa | - | - | - | - |
| 1777473843 | 26.67° C | 37% | 1017.2 hPa | - | - | - | - |
| 1777473450 | 20.56° C | 47% | 1018 hPa | - | - | - | - |
* Rain since midnight (hover to see other rain measurements)
** Current wind speed in m/s (hover to see current wind gust speed)